sensor_id;sensor_type;location;lat;lon;timestamp;temperature;humidity
67275;DHT22;55463;52.324;5.122;2023-03-14T00:00:54;14.14;80.81
67275;DHT22;55463;52.324;5.122;2023-03-14T00:03:19;14.08;80.97
67275;DHT22;55463;52.324;5.122;2023-03-14T00:05:45;14.10;81.81
67275;DHT22;55463;52.324;5.122;2023-03-14T00:08:10;14.10;79.97
67275;DHT22;55463;52.324;5.122;2023-03-14T00:10:37;14.15;80.75
67275;DHT22;55463;52.324;5.122;2023-03-14T00:13:02;14.21;82.22
67275;DHT22;55463;52.324;5.122;2023-03-14T00:15:27;14.22;80.79
67275;DHT22;55463;52.324;5.122;2023-03-14T01:05:14;14.63;81.06
67275;DHT22;55463;52.324;5.122;2023-03-14T01:07:40;14.53;78.80
67275;DHT22;55463;52.324;5.122;2023-03-14T01:10:06;14.53;80.45
67275;DHT22;55463;52.324;5.122;2023-03-14T01:12:31;14.48;77.79
67275;DHT22;55463;52.324;5.122;2023-03-14T01:14:57;14.49;81.20
67275;DHT22;55463;52.324;5.122;2023-03-14T01:17:22;14.66;82.47
67275;DHT22;55463;52.324;5.122;2023-03-14T01:19:48;14.75;81.85
67275;DHT22;55463;52.324;5.122;2023-03-14T01:22:13;14.76;81.86
67275;DHT22;55463;52.324;5.122;2023-03-14T01:24:38;14.79;81.94
67275;DHT22;55463;52.324;5.122;2023-03-14T01:27:04;14.75;81.69
67275;DHT22;55463;52.324;5.122;2023-03-14T01:29:29;14.69;82.04
67275;DHT22;55463;52.324;5.122;2023-03-14T01:31:55;14.73;82.57
67275;DHT22;55463;52.324;5.122;2023-03-14T01:34:20;14.75;81.56
67275;DHT22;55463;52.324;5.122;2023-03-14T01:36:45;14.69;81.77
67275;DHT22;55463;52.324;5.122;2023-03-14T01:39:11;14.66;82.04
67275;DHT22;55463;52.324;5.122;2023-03-14T01:41:38;14.69;82.23
67275;DHT22;55463;52.324;5.122;2023-03-14T01:44:04;14.72;81.99
67275;DHT22;55463;52.324;5.122;2023-03-14T01:46:45;14.69;82.13
67275;DHT22;55463;52.324;5.122;2023-03-14T01:49:22;14.65;81.11
67275;DHT22;55463;52.324;5.122;2023-03-14T01:54:40;14.62;81.36
67275;DHT22;55463;52.324;5.122;2023-03-14T01:57:11;14.63;82.07
67275;DHT22;55463;52.324;5.122;2023-03-14T01:59:40;14.59;81.75
67275;DHT22;55463;52.324;5.122;2023-03-14T02:02:09;14.48;80.96
67275;DHT22;55463;52.324;5.122;2023-03-14T02:04:38;14.46;82.64
67275;DHT22;55463;52.324;5.122;2023-03-14T02:07:24;14.55;82.58
67275;DHT22;55463;52.324;5.122;2023-03-14T02:09:51;14.62;82.41
67275;DHT22;55463;52.324;5.122;2023-03-14T02:12:18;14.69;82.13
67275;DHT22;55463;52.324;5.122;2023-03-14T02:14:45;14.60;80.96
67275;DHT22;55463;52.324;5.122;2023-03-14T02:17:14;14.60;81.84
67275;DHT22;55463;52.324;5.122;2023-03-14T02:20:22;14.59;82.49
67275;DHT22;55463;52.324;5.122;2023-03-14T02:22:47;14.58;82.18
67275;DHT22;55463;52.324;5.122;2023-03-14T02:25:31;14.60;82.00
67275;DHT22;55463;52.324;5.122;2023-03-14T02:28:00;14.65;81.43
67275;DHT22;55463;52.324;5.122;2023-03-14T02:30:29;14.70;82.55
67275;DHT22;55463;52.324;5.122;2023-03-14T02:33:00;14.84;82.16
67275;DHT22;55463;52.324;5.122;2023-03-14T02:35:32;14.94;81.90
67275;DHT22;55463;52.324;5.122;2023-03-14T02:38:20;14.95;80.86
67275;DHT22;55463;52.324;5.122;2023-03-14T02:40:47;15.00;81.53
67275;DHT22;55463;52.324;5.122;2023-03-14T02:43:13;15.07;80.69
67275;DHT22;55463;52.324;5.122;2023-03-14T02:45:41;15.11;81.51
67275;DHT22;55463;52.324;5.122;2023-03-14T02:48:27;15.17;81.69
67275;DHT22;55463;52.324;5.122;2023-03-14T02:50:57;15.27;81.34
67275;DHT22;55463;52.324;5.122;2023-03-14T02:53:32;15.32;80.98
67275;DHT22;55463;52.324;5.122;2023-03-14T02:55:58;15.28;80.41
67275;DHT22;55463;52.324;5.122;2023-03-14T02:58:25;15.35;80.99
67275;DHT22;55463;52.324;5.122;2023-03-14T03:00:51;15.36;80.33
67275;DHT22;55463;52.324;5.122;2023-03-14T03:03:16;15.32;79.58
67275;DHT22;55463;52.324;5.122;2023-03-14T03:05:42;15.31;80.04
67275;DHT22;55463;52.324;5.122;2023-03-14T03:08:10;15.35;80.90
67275;DHT22;55463;52.324;5.122;2023-03-14T03:10:36;15.38;80.95
67275;DHT22;55463;52.324;5.122;2023-03-14T03:13:01;15.43;80.94
67275;DHT22;55463;52.324;5.122;2023-03-14T03:15:27;15.52;80.78
67275;DHT22;55463;52.324;5.122;2023-03-14T03:17:52;15.56;80.23
67275;DHT22;55463;52.324;5.122;2023-03-14T03:20:18;15.56;80.24
67275;DHT22;55463;52.324;5.122;2023-03-14T03:22:43;15.59;80.02
67275;DHT22;55463;52.324;5.122;2023-03-14T03:25:09;15.58;79.36
67275;DHT22;55463;52.324;5.122;2023-03-14T03:27:36;15.60;79.80
67275;DHT22;55463;52.324;5.122;2023-03-14T03:30:06;15.63;79.62
67275;DHT22;55463;52.324;5.122;2023-03-14T03:32:32;15.66;80.01
67275;DHT22;55463;52.324;5.122;2023-03-14T03:34:57;15.63;78.85
67275;DHT22;55463;52.324;5.122;2023-03-14T03:37:23;15.67;80.01
67275;DHT22;55463;52.324;5.122;2023-03-14T03:39:52;15.70;79.86
67275;DHT22;55463;52.324;5.122;2023-03-14T03:42:18;15.76;79.87
67275;DHT22;55463;52.324;5.122;2023-03-14T03:44:43;15.66;78.81
67275;DHT22;55463;52.324;5.122;2023-03-14T03:47:09;15.70;79.39
67275;DHT22;55463;52.324;5.122;2023-03-14T03:49:34;15.67;79.59
67275;DHT22;55463;52.324;5.122;2023-03-14T03:51:59;15.69;79.42
67275;DHT22;55463;52.324;5.122;2023-03-14T03:54:25;15.69;79.58
67275;DHT22;55463;52.324;5.122;2023-03-14T03:56:51;15.71;79.62
67275;DHT22;55463;52.324;5.122;2023-03-14T03:59:16;15.70;78.88
67275;DHT22;55463;52.324;5.122;2023-03-14T04:01:42;15.66;79.39
67275;DHT22;55463;52.324;5.122;2023-03-14T04:04:07;15.66;79.25
67275;DHT22;55463;52.324;5.122;2023-03-14T04:06:33;15.62;78.36
67275;DHT22;55463;52.324;5.122;2023-03-14T04:08:58;15.63;79.04
67275;DHT22;55463;52.324;5.122;2023-03-14T04:11:24;15.63;79.54
67275;DHT22;55463;52.324;5.122;2023-03-14T04:13:49;15.66;79.17
67275;DHT22;55463;52.324;5.122;2023-03-14T04:16:18;15.65;79.14
67275;DHT22;55463;52.324;5.122;2023-03-14T04:18:43;15.66;78.55
67275;DHT22;55463;52.324;5.122;2023-03-14T04:21:09;15.66;78.91
67275;DHT22;55463;52.324;5.122;2023-03-14T04:23:34;15.62;78.83
67275;DHT22;55463;52.324;5.122;2023-03-14T04:26:00;15.63;79.07
67275;DHT22;55463;52.324;5.122;2023-03-14T04:28:25;15.66;78.36
67275;DHT22;55463;52.324;5.122;2023-03-14T04:30:50;15.66;78.05
67275;DHT22;55463;52.324;5.122;2023-03-14T04:33:16;15.66;79.20
67275;DHT22;55463;52.324;5.122;2023-03-14T04:35:45;15.67;79.23
67275;DHT22;55463;52.324;5.122;2023-03-14T04:38:11;15.62;79.12
67275;DHT22;55463;52.324;5.122;2023-03-14T04:40:37;15.59;78.84
67275;DHT22;55463;52.324;5.122;2023-03-14T04:43:03;15.62;79.55
67275;DHT22;55463;52.324;5.122;2023-03-14T04:45:28;15.52;78.37
67275;DHT22;55463;52.324;5.122;2023-03-14T04:47:54;15.50;79.61
67275;DHT22;55463;52.324;5.122;2023-03-14T04:50:19;15.52;79.45
67275;DHT22;55463;52.324;5.122;2023-03-14T04:52:44;15.53;79.27
67275;DHT22;55463;52.324;5.122;2023-03-14T04:55:10;15.53;79.55
67275;DHT22;55463;52.324;5.122;2023-03-14T04:57:35;15.42;79.14
67275;DHT22;55463;52.324;5.122;2023-03-14T05:00:01;15.28;79.28
67275;DHT22;55463;52.324;5.122;2023-03-14T05:02:31;15.18;80.13
67275;DHT22;55463;52.324;5.122;2023-03-14T05:04:56;15.20;80.37
67275;DHT22;55463;52.324;5.122;2023-03-14T05:07:22;15.27;80.36
67275;DHT22;55463;52.324;5.122;2023-03-14T05:09:47;15.32;80.24
67275;DHT22;55463;52.324;5.122;2023-03-14T05:12:12;15.36;80.21
67275;DHT22;55463;52.324;5.122;2023-03-14T05:14:38;15.32;80.34
67275;DHT22;55463;52.324;5.122;2023-03-14T05:17:04;15.32;80.09
67275;DHT22;55463;52.324;5.122;2023-03-14T05:19:30;15.35;80.43
67275;DHT22;55463;52.324;5.122;2023-03-14T05:21:55;15.38;80.36
67275;DHT22;55463;52.324;5.122;2023-03-14T05:24:20;15.45;80.01
67275;DHT22;55463;52.324;5.122;2023-03-14T05:26:46;15.48;80.18
67275;DHT22;55463;52.324;5.122;2023-03-14T05:29:11;15.52;79.19
67275;DHT22;55463;52.324;5.122;2023-03-14T05:31:36;15.34;79.14
67275;DHT22;55463;52.324;5.122;2023-03-14T05:34:02;15.27;80.22
67275;DHT22;55463;52.324;5.122;2023-03-14T05:36:27;15.31;80.08
67275;DHT22;55463;52.324;5.122;2023-03-14T05:38:52;15.30;79.79
67275;DHT22;55463;52.324;5.122;2023-03-14T05:41:18;15.14;79.94
67275;DHT22;55463;52.324;5.122;2023-03-14T05:43:43;15.11;80.47
67275;DHT22;55463;52.324;5.122;2023-03-14T05:46:08;15.11;80.66
67275;DHT22;55463;52.324;5.122;2023-03-14T05:48:34;15.21;80.78
67275;DHT22;55463;52.324;5.122;2023-03-14T05:50:59;15.10;79.40
67275;DHT22;55463;52.324;5.122;2023-03-14T05:53:25;15.05;80.78
67275;DHT22;55463;52.324;5.122;2023-03-14T05:55:52;15.05;80.49
67275;DHT22;55463;52.324;5.122;2023-03-14T05:58:18;14.70;79.41
67275;DHT22;55463;52.324;5.122;2023-03-14T06:00:43;14.26;80.63
67275;DHT22;55463;52.324;5.122;2023-03-14T06:03:08;13.01;92.06
67275;DHT22;55463;52.324;5.122;2023-03-14T06:05:34;11.95;91.19
67275;DHT22;55463;52.324;5.122;2023-03-14T06:07:59;11.11;90.03
67275;DHT22;55463;52.324;5.122;2023-03-14T06:10:24;11.04;90.00
67275;DHT22;55463;52.324;5.122;2023-03-14T06:12:50;10.60;90.61
67275;DHT22;55463;52.324;5.122;2023-03-14T06:15:15;9.91;92.69
67275;DHT22;55463;52.324;5.122;2023-03-14T06:17:40;9.87;92.44
67275;DHT22;55463;52.324;5.122;2023-03-14T06:20:07;9.40;93.44
67275;DHT22;55463;52.324;5.122;2023-03-14T06:22:32;9.01;94.97
67275;DHT22;55463;52.324;5.122;2023-03-14T06:24:58;8.62;96.37
67275;DHT22;55463;52.324;5.122;2023-03-14T06:27:23;8.69;96.27
67275;DHT22;55463;52.324;5.122;2023-03-14T06:29:48;8.18;97.59
67275;DHT22;55463;52.324;5.122;2023-03-14T06:32:14;8.24;98.06
67275;DHT22;55463;52.324;5.122;2023-03-14T06:34:39;8.15;98.29
67275;DHT22;55463;52.324;5.122;2023-03-14T06:37:06;8.07;98.93
67275;DHT22;55463;52.324;5.122;2023-03-14T06:39:31;7.86;99.77
67275;DHT22;55463;52.324;5.122;2023-03-14T06:41:56;7.83;99.99
67275;DHT22;55463;52.324;5.122;2023-03-14T06:44:22;7.80;99.49
67275;DHT22;55463;52.324;5.122;2023-03-14T06:46:47;7.69;99.62
67275;DHT22;55463;52.324;5.122;2023-03-14T06:49:13;7.72;99.02
67275;DHT22;55463;52.324;5.122;2023-03-14T06:51:38;7.59;98.77
67275;DHT22;55463;52.324;5.122;2023-03-14T06:54:04;7.66;98.50
67275;DHT22;55463;52.324;5.122;2023-03-14T06:56:29;7.47;98.93
67275;DHT22;55463;52.324;5.122;2023-03-14T06:58:54;7.36;99.12
67275;DHT22;55463;52.324;5.122;2023-03-14T07:01:23;7.48;99.04
67275;DHT22;55463;52.324;5.122;2023-03-14T07:03:49;7.36;99.64
67275;DHT22;55463;52.324;5.122;2023-03-14T07:06:14;7.38;99.22
67275;DHT22;55463;52.324;5.122;2023-03-14T07:08:39;7.21;98.97
67275;DHT22;55463;52.324;5.122;2023-03-14T07:11:07;7.21;99.26
67275;DHT22;55463;52.324;5.122;2023-03-14T07:13:33;7.20;99.39
67275;DHT22;55463;52.324;5.122;2023-03-14T07:15:58;7.08;99.47
67275;DHT22;55463;52.324;5.122;2023-03-14T07:18:23;7.10;99.20
67275;DHT22;55463;52.324;5.122;2023-03-14T07:20:49;7.10;99.40
67275;DHT22;55463;52.324;5.122;2023-03-14T07:23:14;7.04;98.89
67275;DHT22;55463;52.324;5.122;2023-03-14T07:25:40;6.99;99.46
67275;DHT22;55463;52.324;5.122;2023-03-14T07:28:06;6.94;99.06
67275;DHT22;55463;52.324;5.122;2023-03-14T07:30:31;6.72;99.58
67275;DHT22;55463;52.324;5.122;2023-03-14T07:32:57;6.37;98.78
67275;DHT22;55463;52.324;5.122;2023-03-14T07:35:22;6.20;99.60
67275;DHT22;55463;52.324;5.122;2023-03-14T07:37:47;6.06;99.95
67275;DHT22;55463;52.324;5.122;2023-03-14T07:40:13;5.86;99.25
67275;DHT22;55463;52.324;5.122;2023-03-14T07:42:41;5.79;99.56
67275;DHT22;55463;52.324;5.122;2023-03-14T07:45:07;5.65;99.99
67275;DHT22;55463;52.324;5.122;2023-03-14T07:47:33;5.65;99.87
67275;DHT22;55463;52.324;5.122;2023-03-14T07:49:58;5.55;99.27
67275;DHT22;55463;52.324;5.122;2023-03-14T07:52:24;5.62;97.65
67275;DHT22;55463;52.324;5.122;2023-03-14T07:54:49;5.69;97.56
67275;DHT22;55463;52.324;5.122;2023-03-14T07:57:15;5.72;97.26
67275;DHT22;55463;52.324;5.122;2023-03-14T07:59:40;5.77;96.08
67275;DHT22;55463;52.324;5.122;2023-03-14T08:02:10;5.79;96.22
67275;DHT22;55463;52.324;5.122;2023-03-14T08:04:37;5.85;96.62
67275;DHT22;55463;52.324;5.122;2023-03-14T08:07:03;5.82;97.15
67275;DHT22;55463;52.324;5.122;2023-03-14T08:09:28;5.85;97.10
67275;DHT22;55463;52.324;5.122;2023-03-14T08:11:54;5.83;96.61
67275;DHT22;55463;52.324;5.122;2023-03-14T08:14:19;5.90;96.65
67275;DHT22;55463;52.324;5.122;2023-03-14T08:16:45;6.03;96.29
67275;DHT22;55463;52.324;5.122;2023-03-14T08:19:10;6.07;96.12
67275;DHT22;55463;52.324;5.122;2023-03-14T08:21:35;6.07;94.61
67275;DHT22;55463;52.324;5.122;2023-03-14T08:24:01;6.11;94.63
67275;DHT22;55463;52.324;5.122;2023-03-14T08:26:26;6.18;94.28
67275;DHT22;55463;52.324;5.122;2023-03-14T08:28:51;6.20;93.70
67275;DHT22;55463;52.324;5.122;2023-03-14T08:31:17;6.27;93.45
67275;DHT22;55463;52.324;5.122;2023-03-14T08:33:43;6.30;93.11
67275;DHT22;55463;52.324;5.122;2023-03-14T08:36:08;6.30;91.90
67275;DHT22;55463;52.324;5.122;2023-03-14T08:38:34;6.41;93.08
67275;DHT22;55463;52.324;5.122;2023-03-14T08:41:02;6.41;91.75
67275;DHT22;55463;52.324;5.122;2023-03-14T08:43:28;6.49;91.23
67275;DHT22;55463;52.324;5.122;2023-03-14T08:45:58;6.44;90.80
67275;DHT22;55463;52.324;5.122;2023-03-14T08:48:23;6.48;90.80
67275;DHT22;55463;52.324;5.122;2023-03-14T08:50:49;6.46;91.40
67275;DHT22;55463;52.324;5.122;2023-03-14T08:53:14;6.53;92.23
67275;DHT22;55463;52.324;5.122;2023-03-14T08:55:40;6.55;90.74
67275;DHT22;55463;52.324;5.122;2023-03-14T08:58:05;6.46;90.15
67275;DHT22;55463;52.324;5.122;2023-03-14T09:00:30;6.48;89.98
67275;DHT22;55463;52.324;5.122;2023-03-14T09:02:56;6.44;90.37
67275;DHT22;55463;52.324;5.122;2023-03-14T09:05:21;6.48;90.92
67275;DHT22;55463;52.324;5.122;2023-03-14T09:07:47;6.55;89.66
67275;DHT22;55463;52.324;5.122;2023-03-14T09:10:12;6.46;90.38
67275;DHT22;55463;52.324;5.122;2023-03-14T09:12:37;6.48;90.81
67275;DHT22;55463;52.324;5.122;2023-03-14T09:15:03;6.34;90.84
67275;DHT22;55463;52.324;5.122;2023-03-14T09:17:29;6.42;91.57
67275;DHT22;55463;52.324;5.122;2023-03-14T09:19:54;6.48;91.56
67275;DHT22;55463;52.324;5.122;2023-03-14T09:22:19;6.52;92.71
67275;DHT22;55463;52.324;5.122;2023-03-14T09:24:45;6.59;91.77
67275;DHT22;55463;52.324;5.122;2023-03-14T09:27:11;6.66;91.51
67275;DHT22;55463;52.324;5.122;2023-03-14T09:29:37;6.69;91.64
67275;DHT22;55463;52.324;5.122;2023-03-14T09:32:02;6.68;90.37
67275;DHT22;55463;52.324;5.122;2023-03-14T09:34:28;6.75;89.36
67275;DHT22;55463;52.324;5.122;2023-03-14T09:36:54;6.65;88.32
67275;DHT22;55463;52.324;5.122;2023-03-14T09:39:19;6.62;88.34
67275;DHT22;55463;52.324;5.122;2023-03-14T09:41:50;6.55;89.88
67275;DHT22;55463;52.324;5.122;2023-03-14T09:44:20;6.55;91.21
67275;DHT22;55463;52.324;5.122;2023-03-14T09:46:48;6.52;91.09
67275;DHT22;55463;52.324;5.122;2023-03-14T09:49:33;6.49;91.28
67275;DHT22;55463;52.324;5.122;2023-03-14T09:52:07;6.41;91.97
67275;DHT22;55463;52.324;5.122;2023-03-14T09:54:44;6.45;92.31
67275;DHT22;55463;52.324;5.122;2023-03-14T09:57:24;6.44;92.85
67275;DHT22;55463;52.324;5.122;2023-03-14T09:59:51;6.45;92.16
67275;DHT22;55463;52.324;5.122;2023-03-14T10:02:28;6.50;90.69
67275;DHT22;55463;52.324;5.122;2023-03-14T10:04:58;6.59;89.99
67275;DHT22;55463;52.324;5.122;2023-03-14T10:07:28;6.62;87.15
67275;DHT22;55463;52.324;5.122;2023-03-14T10:09:54;6.76;87.75
67275;DHT22;55463;52.324;5.122;2023-03-14T10:12:20;6.83;87.59
67275;DHT22;55463;52.324;5.122;2023-03-14T10:14:55;6.90;85.18
67275;DHT22;55463;52.324;5.122;2023-03-14T10:17:20;6.90;83.96
67275;DHT22;55463;52.324;5.122;2023-03-14T10:19:58;6.89;84.37
67275;DHT22;55463;52.324;5.122;2023-03-14T10:22:34;6.85;83.76
67275;DHT22;55463;52.324;5.122;2023-03-14T10:25:05;6.86;83.63
67275;DHT22;55463;52.324;5.122;2023-03-14T10:27:35;6.77;82.87
67275;DHT22;55463;52.324;5.122;2023-03-14T10:30:04;6.79;82.36
67275;DHT22;55463;52.324;5.122;2023-03-14T10:32:34;6.76;80.91
67275;DHT22;55463;52.324;5.122;2023-03-14T10:38:11;6.92;82.98
67275;DHT22;55463;52.324;5.122;2023-03-14T10:40:41;6.93;82.23
67275;DHT22;55463;52.324;5.122;2023-03-14T10:43:15;6.83;80.55
67275;DHT22;55463;52.324;5.122;2023-03-14T10:45:43;6.94;80.52
67275;DHT22;55463;52.324;5.122;2023-03-14T10:48:17;7.03;80.34
67275;DHT22;55463;52.324;5.122;2023-03-14T10:54:03;7.20;79.98
67275;DHT22;55463;52.324;5.122;2023-03-14T10:56:36;7.25;80.86
67275;DHT22;55463;52.324;5.122;2023-03-14T10:59:02;7.28;76.98
67275;DHT22;55463;52.324;5.122;2023-03-14T11:01:45;7.36;76.47
67275;DHT22;55463;52.324;5.122;2023-03-14T11:07:33;7.36;76.13
67275;DHT22;55463;52.324;5.122;2023-03-14T11:10:10;7.32;74.64
67275;DHT22;55463;52.324;5.122;2023-03-14T11:23:22;7.36;69.91
67275;DHT22;55463;52.324;5.122;2023-03-14T11:28:29;7.36;65.68
67275;DHT22;55463;52.324;5.122;2023-03-14T11:34:43;7.38;69.07
67275;DHT22;55463;52.324;5.122;2023-03-14T11:36:51;7.49;70.83
67275;DHT22;55463;52.324;5.122;2023-03-14T11:39:19;7.55;70.34
67275;DHT22;55463;52.324;5.122;2023-03-14T11:41:51;7.58;72.51
67275;DHT22;55463;52.324;5.122;2023-03-14T11:44:23;7.65;70.40
67275;DHT22;55463;52.324;5.122;2023-03-14T11:49:51;7.72;69.44
67275;DHT22;55463;52.324;5.122;2023-03-14T11:52:37;7.82;69.30
67275;DHT22;55463;52.324;5.122;2023-03-14T11:58:22;7.77;71.12
67275;DHT22;55463;52.324;5.122;2023-03-14T12:00:49;7.76;63.58
67275;DHT22;55463;52.324;5.122;2023-03-14T12:03:39;7.82;66.03
67275;DHT22;55463;52.324;5.122;2023-03-14T12:08:56;7.90;64.84
67275;DHT22;55463;52.324;5.122;2023-03-14T12:11:39;7.87;66.36
67275;DHT22;55463;52.324;5.122;2023-03-14T12:14:35;7.90;64.91
67275;DHT22;55463;52.324;5.122;2023-03-14T12:17:17;7.90;63.05
67275;DHT22;55463;52.324;5.122;2023-03-14T12:19:44;7.97;65.12
67275;DHT22;55463;52.324;5.122;2023-03-14T12:22:27;8.05;64.47
67275;DHT22;55463;52.324;5.122;2023-03-14T12:25:01;8.00;62.57
67275;DHT22;55463;52.324;5.122;2023-03-14T12:27:49;7.91;61.53
67275;DHT22;55463;52.324;5.122;2023-03-14T12:30:30;7.94;61.79
67275;DHT22;55463;52.324;5.122;2023-03-14T12:35:44;7.93;61.95
67275;DHT22;55463;52.324;5.122;2023-03-14T12:38:12;7.97;64.85
67275;DHT22;55463;52.324;5.122;2023-03-14T12:41:04;8.00;66.38
67275;DHT22;55463;52.324;5.122;2023-03-14T12:43:33;8.04;62.29
67275;DHT22;55463;52.324;5.122;2023-03-14T12:48:40;8.14;63.53
67275;DHT22;55463;52.324;5.122;2023-03-14T12:51:36;8.15;61.31
67275;DHT22;55463;52.324;5.122;2023-03-14T13:04:34;8.14;62.52
67275;DHT22;55463;52.324;5.122;2023-03-14T13:07:01;8.10;61.47
67275;DHT22;55463;52.324;5.122;2023-03-14T13:11:54;8.11;64.23
67275;DHT22;55463;52.324;5.122;2023-03-14T13:14:20;8.21;64.35
67275;DHT22;55463;52.324;5.122;2023-03-14T13:16:47;8.24;65.07
67275;DHT22;55463;52.324;5.122;2023-03-14T13:19:25;8.41;65.34
67275;DHT22;55463;52.324;5.122;2023-03-14T13:22:04;8.55;66.89
67275;DHT22;55463;52.324;5.122;2023-03-14T13:24:33;8.56;66.37
67275;DHT22;55463;52.324;5.122;2023-03-14T13:26:59;8.57;67.37
67275;DHT22;55463;52.324;5.122;2023-03-14T13:29:30;8.45;67.64
67275;DHT22;55463;52.324;5.122;2023-03-14T13:31:57;8.42;65.73
67275;DHT22;55463;52.324;5.122;2023-03-14T13:34:29;8.37;63.52
67275;DHT22;55463;52.324;5.122;2023-03-14T13:36:55;8.48;62.89
67275;DHT22;55463;52.324;5.122;2023-03-14T13:39:23;8.46;61.13
67275;DHT22;55463;52.324;5.122;2023-03-14T13:41:51;8.52;62.62
67275;DHT22;55463;52.324;5.122;2023-03-14T13:44:37;8.37;61.77
67275;DHT22;55463;52.324;5.122;2023-03-14T13:47:09;8.41;62.42
67275;DHT22;55463;52.324;5.122;2023-03-14T13:49:37;8.34;62.98
67275;DHT22;55463;52.324;5.122;2023-03-14T13:52:04;8.25;62.29
67275;DHT22;55463;52.324;5.122;2023-03-14T13:54:31;8.04;60.78
67275;DHT22;55463;52.324;5.122;2023-03-14T13:57:01;8.04;61.66
67275;DHT22;55463;52.324;5.122;2023-03-14T13:59:29;8.01;61.67
67275;DHT22;55463;52.324;5.122;2023-03-14T14:01:56;7.95;61.00
67275;DHT22;55463;52.324;5.122;2023-03-14T14:04:24;7.87;60.70
67275;DHT22;55463;52.324;5.122;2023-03-14T14:06:57;7.84;59.63
67275;DHT22;55463;52.324;5.122;2023-03-14T14:09:29;7.89;60.20
67275;DHT22;55463;52.324;5.122;2023-03-14T14:12:00;7.84;60.49
67275;DHT22;55463;52.324;5.122;2023-03-14T14:14:32;7.86;59.12
67275;DHT22;55463;52.324;5.122;2023-03-14T14:16:59;7.93;60.18
67275;DHT22;55463;52.324;5.122;2023-03-14T14:19:28;7.95;61.93
67275;DHT22;55463;52.324;5.122;2023-03-14T14:21:55;7.98;60.27
67275;DHT22;55463;52.324;5.122;2023-03-14T14:24:24;8.01;61.37
67275;DHT22;55463;52.324;5.122;2023-03-14T14:26:54;8.08;62.05
67275;DHT22;55463;52.324;5.122;2023-03-14T14:29:32;7.98;61.84
67275;DHT22;55463;52.324;5.122;2023-03-14T14:39:47;7.79;61.88
67275;DHT22;55463;52.324;5.122;2023-03-14T14:42:18;7.70;61.23
67275;DHT22;55463;52.324;5.122;2023-03-14T14:44:48;7.66;62.03
67275;DHT22;55463;52.324;5.122;2023-03-14T14:47:19;7.59;62.11
67275;DHT22;55463;52.324;5.122;2023-03-14T14:49:47;7.61;62.36
67275;DHT22;55463;52.324;5.122;2023-03-14T14:54:45;7.61;61.39
67275;DHT22;55463;52.324;5.122;2023-03-14T14:57:20;7.63;61.62
67275;DHT22;55463;52.324;5.122;2023-03-14T14:59:48;7.58;61.16
67275;DHT22;55463;52.324;5.122;2023-03-14T15:02:28;7.59;61.71
67275;DHT22;55463;52.324;5.122;2023-03-14T15:04:54;7.58;62.28
67275;DHT22;55463;52.324;5.122;2023-03-14T15:07:19;7.69;61.78
67275;DHT22;55463;52.324;5.122;2023-03-14T15:09:44;7.80;62.28
67275;DHT22;55463;52.324;5.122;2023-03-14T15:12:10;7.86;62.45
67275;DHT22;55463;52.324;5.122;2023-03-14T15:14:35;7.93;61.14
67275;DHT22;55463;52.324;5.122;2023-03-14T15:17:01;7.95;60.86
67275;DHT22;55463;52.324;5.122;2023-03-14T15:19:27;8.01;60.35
67275;DHT22;55463;52.324;5.122;2023-03-14T15:21:53;7.98;61.01
67275;DHT22;55463;52.324;5.122;2023-03-14T15:24:19;7.98;61.14
67275;DHT22;55463;52.324;5.122;2023-03-14T15:26:45;8.03;61.83
67275;DHT22;55463;52.324;5.122;2023-03-14T15:29:11;7.91;62.07
67275;DHT22;55463;52.324;5.122;2023-03-14T15:31:38;7.94;63.15
67275;DHT22;55463;52.324;5.122;2023-03-14T15:34:04;8.00;64.03
67275;DHT22;55463;52.324;5.122;2023-03-14T15:36:32;8.00;63.30
67275;DHT22;55463;52.324;5.122;2023-03-14T15:38:59;7.91;60.32
67275;DHT22;55463;52.324;5.122;2023-03-14T15:41:25;7.91;61.39
67275;DHT22;55463;52.324;5.122;2023-03-14T15:43:51;7.80;61.89
67275;DHT22;55463;52.324;5.122;2023-03-14T15:46:17;7.72;62.59
67275;DHT22;55463;52.324;5.122;2023-03-14T15:48:46;7.65;63.42
67275;DHT22;55463;52.324;5.122;2023-03-14T15:51:12;7.59;63.95
67275;DHT22;55463;52.324;5.122;2023-03-14T15:53:38;7.54;64.33
67275;DHT22;55463;52.324;5.122;2023-03-14T15:56:05;7.47;65.46
67275;DHT22;55463;52.324;5.122;2023-03-14T15:58:31;7.41;66.48
67275;DHT22;55463;52.324;5.122;2023-03-14T16:01:00;7.48;65.63
67275;DHT22;55463;52.324;5.122;2023-03-14T16:03:27;7.44;65.75
67275;DHT22;55463;52.324;5.122;2023-03-14T16:05:52;7.38;65.52
67275;DHT22;55463;52.324;5.122;2023-03-14T16:08:18;7.42;65.43
67275;DHT22;55463;52.324;5.122;2023-03-14T16:10:43;7.47;66.36
67275;DHT22;55463;52.324;5.122;2023-03-14T16:13:09;7.35;63.44
67275;DHT22;55463;52.324;5.122;2023-03-14T16:15:35;7.38;63.23
67275;DHT22;55463;52.324;5.122;2023-03-14T16:18:00;7.32;63.22
67275;DHT22;55463;52.324;5.122;2023-03-14T16:20:25;7.30;62.79
67275;DHT22;55463;52.324;5.122;2023-03-14T16:22:51;7.35;63.01
67275;DHT22;55463;52.324;5.122;2023-03-14T16:25:16;7.38;63.49
67275;DHT22;55463;52.324;5.122;2023-03-14T16:27:43;7.47;64.01
67275;DHT22;55463;52.324;5.122;2023-03-14T16:30:09;7.51;63.81
67275;DHT22;55463;52.324;5.122;2023-03-14T16:32:35;7.49;64.18
67275;DHT22;55463;52.324;5.122;2023-03-14T16:35:01;7.49;63.92
67275;DHT22;55463;52.324;5.122;2023-03-14T16:37:26;7.58;65.23
67275;DHT22;55463;52.324;5.122;2023-03-14T16:39:52;7.54;63.66
67275;DHT22;55463;52.324;5.122;2023-03-14T16:42:18;7.42;63.61
67275;DHT22;55463;52.324;5.122;2023-03-14T16:44:45;7.35;62.85
67275;DHT22;55463;52.324;5.122;2023-03-14T16:47:11;7.39;63.47
67275;DHT22;55463;52.324;5.122;2023-03-14T16:49:37;7.45;63.43
67275;DHT22;55463;52.324;5.122;2023-03-14T16:52:03;7.48;64.11
67275;DHT22;55463;52.324;5.122;2023-03-14T16:54:29;7.48;63.78
67275;DHT22;55463;52.324;5.122;2023-03-14T16:56:54;7.48;64.72
67275;DHT22;55463;52.324;5.122;2023-03-14T16:59:19;7.41;64.65
67275;DHT22;55463;52.324;5.122;2023-03-14T17:01:45;7.35;66.11
67275;DHT22;55463;52.324;5.122;2023-03-14T17:04:11;7.32;65.94
67275;DHT22;55463;52.324;5.122;2023-03-14T17:06:37;7.20;63.06
67275;DHT22;55463;52.324;5.122;2023-03-14T17:09:03;7.21;61.45
67275;DHT22;55463;52.324;5.122;2023-03-14T17:11:30;7.11;62.97
67275;DHT22;55463;52.324;5.122;2023-03-14T17:13:57;7.14;63.78
67275;DHT22;55463;52.324;5.122;2023-03-14T17:16:23;7.03;64.51
67275;DHT22;55463;52.324;5.122;2023-03-14T17:18:49;7.05;64.80
67275;DHT22;55463;52.324;5.122;2023-03-14T17:21:14;7.03;64.50
67275;DHT22;55463;52.324;5.122;2023-03-14T17:23:40;6.97;65.65
67275;DHT22;55463;52.324;5.122;2023-03-14T17:26:05;6.96;66.43
67275;DHT22;55463;52.324;5.122;2023-03-14T17:28:31;6.90;66.74
67275;DHT22;55463;52.324;5.122;2023-03-14T17:31:06;6.87;67.50
67275;DHT22;55463;52.324;5.122;2023-03-14T17:33:33;6.87;66.73
67275;DHT22;55463;52.324;5.122;2023-03-14T17:35:58;6.77;67.10
67275;DHT22;55463;52.324;5.122;2023-03-14T17:38:24;6.76;67.55